sensor_id;sensor_type;location;lat;lon;timestamp;P1;durP1;ratioP1;P2;durP2;ratioP2
30998;SDS011;20549;50.042;8.968;2023-08-01T00:01:18;2.70;;;2.50;;
30998;SDS011;20549;50.042;8.968;2023-08-01T00:03:45;2.72;;;2.52;;
30998;SDS011;20549;50.042;8.968;2023-08-01T00:06:11;2.80;;;2.50;;
30998;SDS011;20549;50.042;8.968;2023-08-01T00:08:38;2.75;;;2.30;;
30998;SDS011;20549;50.042;8.968;2023-08-01T00:11:05;4.37;;;2.75;;
30998;SDS011;20549;50.042;8.968;2023-08-01T00:13:31;2.98;;;2.67;;
30998;SDS011;20549;50.042;8.968;2023-08-01T00:15:58;4.35;;;2.70;;
30998;SDS011;20549;50.042;8.968;2023-08-01T00:18:24;2.40;;;2.15;;
30998;SDS011;20549;50.042;8.968;2023-08-01T00:20:54;3.45;;;2.62;;
30998;SDS011;20549;50.042;8.968;2023-08-01T00:23:20;3.10;;;2.35;;
30998;SDS011;20549;50.042;8.968;2023-08-01T00:25:47;3.05;;;2.60;;
30998;SDS011;20549;50.042;8.968;2023-08-01T00:28:19;3.08;;;2.30;;
30998;SDS011;20549;50.042;8.968;2023-08-01T00:30:43;3.55;;;2.58;;
30998;SDS011;20549;50.042;8.968;2023-08-01T00:33:09;2.83;;;2.60;;
30998;SDS011;20549;50.042;8.968;2023-08-01T00:35:36;3.45;;;2.27;;
30998;SDS011;20549;50.042;8.968;2023-08-01T00:38:03;2.75;;;2.50;;
30998;SDS011;20549;50.042;8.968;2023-08-01T00:40:32;3.08;;;2.60;;
30998;SDS011;20549;50.042;8.968;2023-08-01T00:42:59;3.05;;;2.45;;
30998;SDS011;20549;50.042;8.968;2023-08-01T00:45:28;3.30;;;2.60;;
30998;SDS011;20549;50.042;8.968;2023-08-01T00:47:55;2.45;;;2.20;;
30998;SDS011;20549;50.042;8.968;2023-08-01T00:50:21;2.42;;;2.22;;
30998;SDS011;20549;50.042;8.968;2023-08-01T00:52:49;3.08;;;2.37;;
30998;SDS011;20549;50.042;8.968;2023-08-01T00:55:14;2.60;;;2.33;;
30998;SDS011;20549;50.042;8.968;2023-08-01T00:57:41;3.87;;;2.60;;
30998;SDS011;20549;50.042;8.968;2023-08-01T01:00:08;3.52;;;2.47;;
30998;SDS011;20549;50.042;8.968;2023-08-01T01:02:34;2.52;;;2.20;;
30998;SDS011;20549;50.042;8.968;2023-08-01T01:05:01;3.87;;;2.52;;
30998;SDS011;20549;50.042;8.968;2023-08-01T01:07:27;2.17;;;2.05;;
30998;SDS011;20549;50.042;8.968;2023-08-01T01:09:54;2.85;;;2.50;;
30998;SDS011;20549;50.042;8.968;2023-08-01T01:12:21;2.40;;;2.15;;
30998;SDS011;20549;50.042;8.968;2023-08-01T01:14:47;3.17;;;2.20;;
30998;SDS011;20549;50.042;8.968;2023-08-01T01:17:14;3.35;;;2.60;;
30998;SDS011;20549;50.042;8.968;2023-08-01T01:19:40;2.83;;;2.60;;
30998;SDS011;20549;50.042;8.968;2023-08-01T01:22:07;3.02;;;2.58;;
30998;SDS011;20549;50.042;8.968;2023-08-01T01:24:34;3.40;;;2.52;;
30998;SDS011;20549;50.042;8.968;2023-08-01T01:27:00;2.72;;;2.33;;
30998;SDS011;20549;50.042;8.968;2023-08-01T01:29:27;4.92;;;3.08;;
30998;SDS011;20549;50.042;8.968;2023-08-01T01:31:53;2.75;;;2.55;;
30998;SDS011;20549;50.042;8.968;2023-08-01T01:34:20;4.45;;;3.15;;
30998;SDS011;20549;50.042;8.968;2023-08-01T01:36:47;2.87;;;2.55;;
30998;SDS011;20549;50.042;8.968;2023-08-01T01:39:13;3.15;;;2.70;;
30998;SDS011;20549;50.042;8.968;2023-08-01T01:41:40;4.12;;;2.55;;
30998;SDS011;20549;50.042;8.968;2023-08-01T01:44:06;4.87;;;2.85;;
30998;SDS011;20549;50.042;8.968;2023-08-01T01:46:33;3.22;;;2.75;;
30998;SDS011;20549;50.042;8.968;2023-08-01T01:48:59;3.27;;;2.70;;
30998;SDS011;20549;50.042;8.968;2023-08-01T01:51:26;3.17;;;2.45;;
30998;SDS011;20549;50.042;8.968;2023-08-01T01:53:53;2.80;;;2.58;;
30998;SDS011;20549;50.042;8.968;2023-08-01T01:56:19;3.25;;;2.60;;
30998;SDS011;20549;50.042;8.968;2023-08-01T01:58:46;3.20;;;2.58;;
30998;SDS011;20549;50.042;8.968;2023-08-01T02:01:12;4.37;;;2.70;;
30998;SDS011;20549;50.042;8.968;2023-08-01T02:03:39;4.10;;;3.02;;
30998;SDS011;20549;50.042;8.968;2023-08-01T02:06:06;4.17;;;3.45;;
30998;SDS011;20549;50.042;8.968;2023-08-01T02:08:32;4.15;;;3.30;;
30998;SDS011;20549;50.042;8.968;2023-08-01T02:10:59;3.12;;;2.80;;
30998;SDS011;20549;50.042;8.968;2023-08-01T02:13:26;2.92;;;2.70;;
30998;SDS011;20549;50.042;8.968;2023-08-01T02:15:52;4.28;;;2.83;;
30998;SDS011;20549;50.042;8.968;2023-08-01T02:18:19;3.22;;;2.92;;
30998;SDS011;20549;50.042;8.968;2023-08-01T02:20:45;3.55;;;3.22;;
30998;SDS011;20549;50.042;8.968;2023-08-01T02:23:12;4.87;;;2.77;;
30998;SDS011;20549;50.042;8.968;2023-08-01T02:25:39;2.98;;;2.45;;
30998;SDS011;20549;50.042;8.968;2023-08-01T02:28:05;3.05;;;2.75;;
30998;SDS011;20549;50.042;8.968;2023-08-01T02:30:32;4.60;;;2.90;;
30998;SDS011;20549;50.042;8.968;2023-08-01T02:32:58;2.98;;;2.67;;
30998;SDS011;20549;50.042;8.968;2023-08-01T02:35:25;3.90;;;3.10;;
30998;SDS011;20549;50.042;8.968;2023-08-01T02:37:51;3.77;;;3.00;;
30998;SDS011;20549;50.042;8.968;2023-08-01T02:40:18;3.60;;;2.98;;
30998;SDS011;20549;50.042;8.968;2023-08-01T02:42:44;3.25;;;2.95;;
30998;SDS011;20549;50.042;8.968;2023-08-01T02:45:11;4.03;;;3.22;;
30998;SDS011;20549;50.042;8.968;2023-08-01T02:47:38;3.58;;;2.83;;
30998;SDS011;20549;50.042;8.968;2023-08-01T02:50:04;2.55;;;2.20;;
30998;SDS011;20549;50.042;8.968;2023-08-01T02:52:31;4.28;;;3.17;;
30998;SDS011;20549;50.042;8.968;2023-08-01T02:54:57;2.67;;;2.47;;
30998;SDS011;20549;50.042;8.968;2023-08-01T02:57:24;2.67;;;2.47;;
30998;SDS011;20549;50.042;8.968;2023-08-01T02:59:51;3.65;;;2.40;;
30998;SDS011;20549;50.042;8.968;2023-08-01T03:02:17;2.35;;;2.15;;
30998;SDS011;20549;50.042;8.968;2023-08-01T03:04:44;3.40;;;2.50;;
30998;SDS011;20549;50.042;8.968;2023-08-01T03:07:10;2.37;;;2.17;;
30998;SDS011;20549;50.042;8.968;2023-08-01T03:09:37;2.70;;;2.50;;
30998;SDS011;20549;50.042;8.968;2023-08-01T03:12:04;2.30;;;2.10;;
30998;SDS011;20549;50.042;8.968;2023-08-01T03:14:30;2.60;;;2.10;;
30998;SDS011;20549;50.042;8.968;2023-08-01T03:16:57;2.42;;;2.20;;
30998;SDS011;20549;50.042;8.968;2023-08-01T03:19:23;2.50;;;2.30;;
30998;SDS011;20549;50.042;8.968;2023-08-01T03:21:50;2.60;;;2.40;;
30998;SDS011;20549;50.042;8.968;2023-08-01T03:24:17;3.37;;;2.10;;
30998;SDS011;20549;50.042;8.968;2023-08-01T03:26:43;3.85;;;2.40;;
30998;SDS011;20549;50.042;8.968;2023-08-01T03:29:10;2.70;;;2.50;;
30998;SDS011;20549;50.042;8.968;2023-08-01T03:31:36;2.08;;;1.98;;
30998;SDS011;20549;50.042;8.968;2023-08-01T03:34:03;2.02;;;1.65;;
30998;SDS011;20549;50.042;8.968;2023-08-01T03:36:29;2.20;;;1.80;;
30998;SDS011;20549;50.042;8.968;2023-08-01T03:38:56;2.58;;;1.90;;
30998;SDS011;20549;50.042;8.968;2023-08-01T03:41:23;2.72;;;1.95;;
30998;SDS011;20549;50.042;8.968;2023-08-01T03:43:49;2.55;;;2.00;;
30998;SDS011;20549;50.042;8.968;2023-08-01T03:46:16;2.00;;;1.80;;
30998;SDS011;20549;50.042;8.968;2023-08-01T03:48:42;2.12;;;1.82;;
30998;SDS011;20549;50.042;8.968;2023-08-01T03:51:09;3.50;;;2.60;;
30998;SDS011;20549;50.042;8.968;2023-08-01T03:53:36;2.70;;;1.92;;
30998;SDS011;20549;50.042;8.968;2023-08-01T03:56:02;2.60;;;2.40;;
30998;SDS011;20549;50.042;8.968;2023-08-01T03:58:29;2.95;;;2.02;;
30998;SDS011;20549;50.042;8.968;2023-08-01T04:00:55;2.50;;;2.30;;
30998;SDS011;20549;50.042;8.968;2023-08-01T04:03:22;2.02;;;1.92;;
30998;SDS011;20549;50.042;8.968;2023-08-01T04:05:49;2.40;;;2.00;;
30998;SDS011;20549;50.042;8.968;2023-08-01T04:08:15;2.83;;;2.22;;
30998;SDS011;20549;50.042;8.968;2023-08-01T04:10:42;2.72;;;1.85;;
30998;SDS011;20549;50.042;8.968;2023-08-01T04:13:08;2.25;;;2.05;;
30998;SDS011;20549;50.042;8.968;2023-08-01T04:15:35;2.33;;;2.12;;
30998;SDS011;20549;50.042;8.968;2023-08-01T04:18:01;2.87;;;2.20;;
30998;SDS011;20549;50.042;8.968;2023-08-01T04:20:28;2.30;;;2.10;;
30998;SDS011;20549;50.042;8.968;2023-08-01T04:22:55;2.10;;;1.95;;
30998;SDS011;20549;50.042;8.968;2023-08-01T04:25:21;2.45;;;2.00;;
30998;SDS011;20549;50.042;8.968;2023-08-01T04:27:48;1.87;;;1.77;;
30998;SDS011;20549;50.042;8.968;2023-08-01T04:30:14;4.12;;;2.40;;
30998;SDS011;20549;50.042;8.968;2023-08-01T04:32:41;2.50;;;2.25;;
30998;SDS011;20549;50.042;8.968;2023-08-01T04:35:08;2.08;;;1.98;;
30998;SDS011;20549;50.042;8.968;2023-08-01T04:37:34;2.75;;;2.22;;
30998;SDS011;20549;50.042;8.968;2023-08-01T04:40:01;2.45;;;2.05;;
30998;SDS011;20549;50.042;8.968;2023-08-01T04:42:28;2.30;;;2.10;;
30998;SDS011;20549;50.042;8.968;2023-08-01T04:44:54;2.83;;;2.50;;
30998;SDS011;20549;50.042;8.968;2023-08-01T04:47:21;2.30;;;2.10;;
30998;SDS011;20549;50.042;8.968;2023-08-01T04:49:47;2.20;;;2.00;;
30998;SDS011;20549;50.042;8.968;2023-08-01T04:52:14;3.25;;;2.17;;
30998;SDS011;20549;50.042;8.968;2023-08-01T04:54:40;2.92;;;2.30;;
30998;SDS011;20549;50.042;8.968;2023-08-01T04:57:07;3.37;;;2.02;;
30998;SDS011;20549;50.042;8.968;2023-08-01T04:59:34;2.45;;;2.25;;
30998;SDS011;20549;50.042;8.968;2023-08-01T05:02:00;2.37;;;2.05;;
30998;SDS011;20549;50.042;8.968;2023-08-01T05:04:27;3.10;;;2.08;;
30998;SDS011;20549;50.042;8.968;2023-08-01T05:06:53;2.22;;;1.90;;
30998;SDS011;20549;50.042;8.968;2023-08-01T05:09:20;2.00;;;1.90;;
30998;SDS011;20549;50.042;8.968;2023-08-01T05:11:46;2.08;;;1.87;;
30998;SDS011;20549;50.042;8.968;2023-08-01T05:14:13;2.37;;;2.15;;
30998;SDS011;20549;50.042;8.968;2023-08-01T05:16:40;2.20;;;2.00;;
30998;SDS011;20549;50.042;8.968;2023-08-01T05:19:06;2.65;;;2.12;;
30998;SDS011;20549;50.042;8.968;2023-08-01T05:21:33;2.15;;;1.82;;
30998;SDS011;20549;50.042;8.968;2023-08-01T05:23:59;2.42;;;2.00;;
30998;SDS011;20549;50.042;8.968;2023-08-01T05:26:26;3.75;;;1.92;;
30998;SDS011;20549;50.042;8.968;2023-08-01T05:28:53;2.90;;;1.70;;
30998;SDS011;20549;50.042;8.968;2023-08-01T05:31:19;2.65;;;1.98;;
30998;SDS011;20549;50.042;8.968;2023-08-01T05:33:46;2.27;;;2.08;;
30998;SDS011;20549;50.042;8.968;2023-08-01T05:36:12;1.90;;;1.70;;
30998;SDS011;20549;50.042;8.968;2023-08-01T05:38:39;2.00;;;1.65;;
30998;SDS011;20549;50.042;8.968;2023-08-01T05:41:06;2.25;;;1.52;;
30998;SDS011;20549;50.042;8.968;2023-08-01T05:43:32;1.85;;;1.75;;
30998;SDS011;20549;50.042;8.968;2023-08-01T05:45:59;3.17;;;1.82;;
30998;SDS011;20549;50.042;8.968;2023-08-01T05:48:25;2.05;;;1.70;;
30998;SDS011;20549;50.042;8.968;2023-08-01T05:50:52;2.25;;;2.00;;
30998;SDS011;20549;50.042;8.968;2023-08-01T05:53:18;2.77;;;2.47;;
30998;SDS011;20549;50.042;8.968;2023-08-01T05:55:45;2.87;;;2.20;;
30998;SDS011;20549;50.042;8.968;2023-08-01T05:58:12;2.95;;;2.65;;
30998;SDS011;20549;50.042;8.968;2023-08-01T06:00:38;2.50;;;2.30;;
30998;SDS011;20549;50.042;8.968;2023-08-01T06:03:05;2.40;;;2.20;;
30998;SDS011;20549;50.042;8.968;2023-08-01T06:05:31;3.22;;;2.60;;
30998;SDS011;20549;50.042;8.968;2023-08-01T06:07:58;4.72;;;2.55;;
30998;SDS011;20549;50.042;8.968;2023-08-01T06:10:25;2.00;;;1.90;;
30998;SDS011;20549;50.042;8.968;2023-08-01T06:12:51;4.62;;;3.25;;
30998;SDS011;20549;50.042;8.968;2023-08-01T06:15:18;2.72;;;2.52;;
30998;SDS011;20549;50.042;8.968;2023-08-01T06:17:44;2.60;;;2.40;;
30998;SDS011;20549;50.042;8.968;2023-08-01T06:20:11;2.50;;;2.30;;
30998;SDS011;20549;50.042;8.968;2023-08-01T06:22:38;2.40;;;2.20;;
30998;SDS011;20549;50.042;8.968;2023-08-01T06:25:04;2.60;;;2.40;;
30998;SDS011;20549;50.042;8.968;2023-08-01T06:27:31;2.70;;;2.50;;
30998;SDS011;20549;50.042;8.968;2023-08-01T06:29:57;4.70;;;2.55;;
30998;SDS011;20549;50.042;8.968;2023-08-01T06:32:24;2.92;;;2.67;;
30998;SDS011;20549;50.042;8.968;2023-08-01T06:34:50;2.80;;;2.60;;
30998;SDS011;20549;50.042;8.968;2023-08-01T06:37:17;3.15;;;2.20;;
30998;SDS011;20549;50.042;8.968;2023-08-01T06:39:44;13.10;;;4.30;;
30998;SDS011;20549;50.042;8.968;2023-08-01T06:42:10;2.87;;;2.58;;
30998;SDS011;20549;50.042;8.968;2023-08-01T06:44:37;2.33;;;2.12;;
30998;SDS011;20549;50.042;8.968;2023-08-01T06:47:04;2.15;;;2.05;;
30998;SDS011;20549;50.042;8.968;2023-08-01T06:49:30;2.52;;;2.33;;
30998;SDS011;20549;50.042;8.968;2023-08-01T06:51:57;2.10;;;1.90;;
30998;SDS011;20549;50.042;8.968;2023-08-01T06:54:23;2.37;;;1.75;;
30998;SDS011;20549;50.042;8.968;2023-08-01T06:56:50;2.02;;;1.82;;
30998;SDS011;20549;50.042;8.968;2023-08-01T06:59:16;1.80;;;1.70;;
30998;SDS011;20549;50.042;8.968;2023-08-01T07:01:43;2.58;;;1.82;;
30998;SDS011;20549;50.042;8.968;2023-08-01T07:04:10;2.12;;;1.92;;
30998;SDS011;20549;50.042;8.968;2023-08-01T07:06:36;1.85;;;1.75;;
30998;SDS011;20549;50.042;8.968;2023-08-01T07:09:03;1.67;;;1.57;;
30998;SDS011;20549;50.042;8.968;2023-08-01T07:11:29;2.08;;;1.70;;
30998;SDS011;20549;50.042;8.968;2023-08-01T07:13:56;1.70;;;1.60;;
30998;SDS011;20549;50.042;8.968;2023-08-01T07:16:23;2.20;;;1.98;;
30998;SDS011;20549;50.042;8.968;2023-08-01T07:18:49;1.98;;;1.77;;
30998;SDS011;20549;50.042;8.968;2023-08-01T07:21:16;1.82;;;1.42;;
30998;SDS011;20549;50.042;8.968;2023-08-01T07:23:42;1.25;;;1.15;;
30998;SDS011;20549;50.042;8.968;2023-08-01T07:26:09;1.60;;;1.50;;
30998;SDS011;20549;50.042;8.968;2023-08-01T07:28:36;1.20;;;1.10;;
30998;SDS011;20549;50.042;8.968;2023-08-01T07:31:04;1.20;;;1.10;;
30998;SDS011;20549;50.042;8.968;2023-08-01T07:33:29;1.27;;;1.17;;
30998;SDS011;20549;50.042;8.968;2023-08-01T07:35:55;0.60;;;0.60;;
30998;SDS011;20549;50.042;8.968;2023-08-01T07:38:22;2.62;;;1.40;;
30998;SDS011;20549;50.042;8.968;2023-08-01T07:40:48;1.55;;;1.12;;
30998;SDS011;20549;50.042;8.968;2023-08-01T07:43:15;1.10;;;1.10;;
30998;SDS011;20549;50.042;8.968;2023-08-01T07:45:42;0.93;;;0.90;;
30998;SDS011;20549;50.042;8.968;2023-08-01T07:48:08;1.00;;;1.00;;
30998;SDS011;20549;50.042;8.968;2023-08-01T07:50:35;2.40;;;1.20;;
30998;SDS011;20549;50.042;8.968;2023-08-01T07:53:01;0.90;;;0.90;;
30998;SDS011;20549;50.042;8.968;2023-08-01T07:55:28;0.98;;;0.95;;
30998;SDS011;20549;50.042;8.968;2023-08-01T07:57:55;4.75;;;2.22;;
30998;SDS011;20549;50.042;8.968;2023-08-01T08:00:21;1.65;;;1.15;;
30998;SDS011;20549;50.042;8.968;2023-08-01T08:02:48;1.10;;;1.00;;
30998;SDS011;20549;50.042;8.968;2023-08-01T08:05:14;1.25;;;1.15;;
30998;SDS011;20549;50.042;8.968;2023-08-01T08:07:41;0.80;;;0.80;;
30998;SDS011;20549;50.042;8.968;2023-08-01T08:10:08;1.07;;;1.07;;
30998;SDS011;20549;50.042;8.968;2023-08-01T08:12:34;1.45;;;1.00;;
30998;SDS011;20549;50.042;8.968;2023-08-01T08:15:01;1.32;;;1.22;;
30998;SDS011;20549;50.042;8.968;2023-08-01T08:17:27;1.10;;;1.02;;
30998;SDS011;20549;50.042;8.968;2023-08-01T08:19:54;1.12;;;0.93;;
30998;SDS011;20549;50.042;8.968;2023-08-01T08:22:20;1.98;;;1.52;;
30998;SDS011;20549;50.042;8.968;2023-08-01T08:24:47;1.45;;;0.98;;
30998;SDS011;20549;50.042;8.968;2023-08-01T08:27:14;0.78;;;0.78;;
30998;SDS011;20549;50.042;8.968;2023-08-01T08:29:40;1.20;;;0.80;;
30998;SDS011;20549;50.042;8.968;2023-08-01T08:32:07;1.02;;;0.88;;
30998;SDS011;20549;50.042;8.968;2023-08-01T08:34:33;0.88;;;0.80;;
30998;SDS011;20549;50.042;8.968;2023-08-01T08:37:00;0.78;;;0.78;;
30998;SDS011;20549;50.042;8.968;2023-08-01T08:39:27;0.70;;;0.60;;
30998;SDS011;20549;50.042;8.968;2023-08-01T08:41:53;0.72;;;0.72;;
30998;SDS011;20549;50.042;8.968;2023-08-01T08:44:20;1.45;;;0.62;;
30998;SDS011;20549;50.042;8.968;2023-08-01T08:46:50;0.62;;;0.50;;
30998;SDS011;20549;50.042;8.968;2023-08-01T08:49:16;1.10;;;0.75;;
30998;SDS011;20549;50.042;8.968;2023-08-01T08:51:43;1.05;;;0.80;;
30998;SDS011;20549;50.042;8.968;2023-08-01T08:54:09;0.60;;;0.60;;
30998;SDS011;20549;50.042;8.968;2023-08-01T08:56:36;0.68;;;0.68;;
30998;SDS011;20549;50.042;8.968;2023-08-01T08:59:02;0.90;;;0.53;;
30998;SDS011;20549;50.042;8.968;2023-08-01T09:01:29;0.50;;;0.50;;
30998;SDS011;20549;50.042;8.968;2023-08-01T09:03:56;0.60;;;0.60;;
30998;SDS011;20549;50.042;8.968;2023-08-01T09:06:28;0.50;;;0.50;;
30998;SDS011;20549;50.042;8.968;2023-08-01T09:09:02;0.40;;;0.40;;
30998;SDS011;20549;50.042;8.968;2023-08-01T09:11:44;1.02;;;0.80;;
30998;SDS011;20549;50.042;8.968;2023-08-01T09:14:09;0.80;;;0.78;;
30998;SDS011;20549;50.042;8.968;2023-08-01T09:16:35;1.17;;;1.07;;
30998;SDS011;20549;50.042;8.968;2023-08-01T09:19:02;0.65;;;0.65;;
30998;SDS011;20549;50.042;8.968;2023-08-01T09:21:31;1.20;;;1.10;;
30998;SDS011;20549;50.042;8.968;2023-08-01T09:23:55;1.85;;;0.88;;
30998;SDS011;20549;50.042;8.968;2023-08-01T09:26:22;0.78;;;0.78;;
30998;SDS011;20549;50.042;8.968;2023-08-01T09:28:55;1.12;;;0.98;;
30998;SDS011;20549;50.042;8.968;2023-08-01T09:31:31;2.45;;;0.88;;
30998;SDS011;20549;50.042;8.968;2023-08-01T09:33:57;0.78;;;0.78;;
30998;SDS011;20549;50.042;8.968;2023-08-01T09:36:23;1.22;;;1.05;;
30998;SDS011;20549;50.042;8.968;2023-08-01T09:38:50;0.82;;;0.82;;
30998;SDS011;20549;50.042;8.968;2023-08-01T09:41:17;0.72;;;0.72;;
30998;SDS011;20549;50.042;8.968;2023-08-01T09:43:44;1.12;;;1.02;;
30998;SDS011;20549;50.042;8.968;2023-08-01T09:46:11;1.10;;;1.10;;
30998;SDS011;20549;50.042;8.968;2023-08-01T09:48:36;0.95;;;0.95;;
30998;SDS011;20549;50.042;8.968;2023-08-01T09:51:04;1.22;;;0.90;;
30998;SDS011;20549;50.042;8.968;2023-08-01T09:53:29;0.72;;;0.72;;
30998;SDS011;20549;50.042;8.968;2023-08-01T09:55:56;1.17;;;1.00;;
30998;SDS011;20549;50.042;8.968;2023-08-01T09:58:23;1.00;;;0.90;;
30998;SDS011;20549;50.042;8.968;2023-08-01T10:00:49;0.70;;;0.70;;
30998;SDS011;20549;50.042;8.968;2023-08-01T10:03:16;0.90;;;0.68;;
30998;SDS011;20549;50.042;8.968;2023-08-01T10:05:42;0.70;;;0.70;;
30998;SDS011;20549;50.042;8.968;2023-08-01T10:08:09;1.10;;;0.98;;
30998;SDS011;20549;50.042;8.968;2023-08-01T10:10:35;0.93;;;0.50;;
30998;SDS011;20549;50.042;8.968;2023-08-01T10:13:02;0.80;;;0.68;;
30998;SDS011;20549;50.042;8.968;2023-08-01T10:15:29;0.82;;;0.82;;
30998;SDS011;20549;50.042;8.968;2023-08-01T10:17:55;1.20;;;0.80;;
30998;SDS011;20549;50.042;8.968;2023-08-01T10:20:22;2.00;;;1.90;;
30998;SDS011;20549;50.042;8.968;2023-08-01T10:22:49;1.65;;;1.10;;
30998;SDS011;20549;50.042;8.968;2023-08-01T10:25:15;1.32;;;1.05;;
30998;SDS011;20549;50.042;8.968;2023-08-01T10:27:42;2.83;;;0.90;;
30998;SDS011;20549;50.042;8.968;2023-08-01T10:30:08;0.70;;;0.70;;
30998;SDS011;20549;50.042;8.968;2023-08-01T10:32:38;0.98;;;0.60;;
30998;SDS011;20549;50.042;8.968;2023-08-01T10:35:04;1.00;;;0.90;;
30998;SDS011;20549;50.042;8.968;2023-08-01T10:37:43;0.70;;;0.70;;
30998;SDS011;20549;50.042;8.968;2023-08-01T10:40:10;1.75;;;0.60;;
30998;SDS011;20549;50.042;8.968;2023-08-01T10:42:40;0.80;;;0.80;;
30998;SDS011;20549;50.042;8.968;2023-08-01T10:45:19;0.90;;;0.90;;
30998;SDS011;20549;50.042;8.968;2023-08-01T10:47:48;0.82;;;0.80;;
30998;SDS011;20549;50.042;8.968;2023-08-01T10:50:14;0.78;;;0.78;;
30998;SDS011;20549;50.042;8.968;2023-08-01T10:52:40;0.88;;;0.70;;
30998;SDS011;20549;50.042;8.968;2023-08-01T10:55:07;0.80;;;0.80;;
30998;SDS011;20549;50.042;8.968;2023-08-01T10:57:38;2.27;;;1.05;;
30998;SDS011;20549;50.042;8.968;2023-08-01T11:00:03;0.78;;;0.78;;
30998;SDS011;20549;50.042;8.968;2023-08-01T11:02:29;1.25;;;0.90;;
30998;SDS011;20549;50.042;8.968;2023-08-01T11:04:56;1.40;;;1.00;;
30998;SDS011;20549;50.042;8.968;2023-08-01T11:07:25;1.17;;;0.80;;
30998;SDS011;20549;50.042;8.968;2023-08-01T11:10:11;0.70;;;0.70;;
30998;SDS011;20549;50.042;8.968;2023-08-01T11:12:38;1.30;;;1.00;;
30998;SDS011;20549;50.042;8.968;2023-08-01T11:15:07;1.17;;;1.10;;
30998;SDS011;20549;50.042;8.968;2023-08-01T11:17:34;1.22;;;0.90;;
30998;SDS011;20549;50.042;8.968;2023-08-01T11:20:01;0.90;;;0.90;;
30998;SDS011;20549;50.042;8.968;2023-08-01T11:22:29;1.25;;;1.07;;
30998;SDS011;20549;50.042;8.968;2023-08-01T11:24:56;0.70;;;0.70;;
30998;SDS011;20549;50.042;8.968;2023-08-01T11:27:23;1.07;;;0.88;;
30998;SDS011;20549;50.042;8.968;2023-08-01T11:29:49;1.02;;;1.00;;
30998;SDS011;20549;50.042;8.968;2023-08-01T11:32:16;1.25;;;1.15;;
30998;SDS011;20549;50.042;8.968;2023-08-01T11:34:42;1.25;;;1.12;;
30998;SDS011;20549;50.042;8.968;2023-08-01T11:37:10;2.10;;;1.10;;
30998;SDS011;20549;50.042;8.968;2023-08-01T11:39:35;1.25;;;1.07;;
30998;SDS011;20549;50.042;8.968;2023-08-01T11:42:02;1.17;;;1.10;;
30998;SDS011;20549;50.042;8.968;2023-08-01T11:44:29;0.85;;;0.85;;
30998;SDS011;20549;50.042;8.968;2023-08-01T11:46:55;0.80;;;0.80;;
30998;SDS011;20549;50.042;8.968;2023-08-01T11:49:22;0.82;;;0.82;;
30998;SDS011;20549;50.042;8.968;2023-08-01T11:51:48;1.20;;;0.90;;
30998;SDS011;20549;50.042;8.968;2023-08-01T11:54:15;1.05;;;0.95;;
30998;SDS011;20549;50.042;8.968;2023-08-01T11:56:42;0.90;;;0.90;;
30998;SDS011;20549;50.042;8.968;2023-08-01T11:59:12;0.80;;;0.80;;
30998;SDS011;20549;50.042;8.968;2023-08-01T12:01:38;1.37;;;1.32;;
30998;SDS011;20549;50.042;8.968;2023-08-01T12:04:04;1.20;;;1.10;;
30998;SDS011;20549;50.042;8.968;2023-08-01T12:06:31;1.17;;;1.00;;
30998;SDS011;20549;50.042;8.968;2023-08-01T12:09:05;1.70;;;1.10;;
30998;SDS011;20549;50.042;8.968;2023-08-01T12:11:25;1.12;;;1.00;;
30998;SDS011;20549;50.042;8.968;2023-08-01T12:14:00;1.82;;;1.10;;
30998;SDS011;20549;50.042;8.968;2023-08-01T12:16:26;2.20;;;0.98;;
30998;SDS011;20549;50.042;8.968;2023-08-01T12:18:53;1.30;;;1.20;;
30998;SDS011;20549;50.042;8.968;2023-08-01T12:21:20;0.82;;;0.82;;
30998;SDS011;20549;50.042;8.968;2023-08-01T12:23:46;0.95;;;0.95;;
30998;SDS011;20549;50.042;8.968;2023-08-01T12:26:13;1.10;;;0.80;;
30998;SDS011;20549;50.042;8.968;2023-08-01T12:28:39;0.88;;;0.70;;
30998;SDS011;20549;50.042;8.968;2023-08-01T12:31:06;0.85;;;0.82;;
30998;SDS011;20549;50.042;8.968;2023-08-01T12:33:33;0.82;;;0.80;;
30998;SDS011;20549;50.042;8.968;2023-08-01T12:35:59;1.17;;;1.07;;
30998;SDS011;20549;50.042;8.968;2023-08-01T12:38:26;1.20;;;1.10;;
30998;SDS011;20549;50.042;8.968;2023-08-01T12:40:52;0.82;;;0.82;;
30998;SDS011;20549;50.042;8.968;2023-08-01T12:43:19;1.92;;;1.47;;
30998;SDS011;20549;50.042;8.968;2023-08-01T12:45:46;1.20;;;1.07;;
30998;SDS011;20549;50.042;8.968;2023-08-01T12:48:12;1.20;;;1.12;;
30998;SDS011;20549;50.042;8.968;2023-08-01T12:50:42;1.30;;;1.20;;
30998;SDS011;20549;50.042;8.968;2023-08-01T12:53:05;1.00;;;1.00;;
30998;SDS011;20549;50.042;8.968;2023-08-01T12:55:32;2.52;;;0.95;;
30998;SDS011;20549;50.042;8.968;2023-08-01T12:57:58;1.25;;;0.90;;
30998;SDS011;20549;50.042;8.968;2023-08-01T13:00:25;1.20;;;1.10;;
30998;SDS011;20549;50.042;8.968;2023-08-01T13:02:52;2.10;;;1.10;;
30998;SDS011;20549;50.042;8.968;2023-08-01T13:05:18;0.90;;;0.90;;
30998;SDS011;20549;50.042;8.968;2023-08-01T13:07:45;1.40;;;0.90;;
30998;SDS011;20549;50.042;8.968;2023-08-01T13:10:11;1.37;;;1.05;;
30998;SDS011;20549;50.042;8.968;2023-08-01T13:12:38;1.27;;;1.00;;
30998;SDS011;20549;50.042;8.968;2023-08-01T13:15:05;1.62;;;1.00;;
30998;SDS011;20549;50.042;8.968;2023-08-01T13:17:31;1.20;;;1.05;;
30998;SDS011;20549;50.042;8.968;2023-08-01T13:19:58;1.02;;;0.90;;
30998;SDS011;20549;50.042;8.968;2023-08-01T13:22:25;0.80;;;0.80;;
30998;SDS011;20549;50.042;8.968;2023-08-01T13:24:51;1.15;;;1.07;;
30998;SDS011;20549;50.042;8.968;2023-08-01T13:27:18;2.02;;;1.05;;
30998;SDS011;20549;50.042;8.968;2023-08-01T13:29:44;0.93;;;0.90;;
30998;SDS011;20549;50.042;8.968;2023-08-01T13:32:11;0.95;;;0.95;;
30998;SDS011;20549;50.042;8.968;2023-08-01T13:34:38;2.02;;;1.07;;
30998;SDS011;20549;50.042;8.968;2023-08-01T13:37:04;1.35;;;1.07;;
30998;SDS011;20549;50.042;8.968;2023-08-01T13:39:31;1.10;;;1.00;;
30998;SDS011;20549;50.042;8.968;2023-08-01T13:41:57;1.42;;;1.27;;
30998;SDS011;20549;50.042;8.968;2023-08-01T13:44:24;1.45;;;1.25;;
30998;SDS011;20549;50.042;8.968;2023-08-01T13:46:51;2.87;;;2.15;;
30998;SDS011;20549;50.042;8.968;2023-08-01T13:49:17;4.45;;;2.10;;
30998;SDS011;20549;50.042;8.968;2023-08-01T13:51:44;1.98;;;1.70;;
30998;SDS011;20549;50.042;8.968;2023-08-01T13:54:10;1.47;;;1.37;;
30998;SDS011;20549;50.042;8.968;2023-08-01T13:56:37;1.27;;;1.12;;
30998;SDS011;20549;50.042;8.968;2023-08-01T13:59:03;1.92;;;1.15;;
30998;SDS011;20549;50.042;8.968;2023-08-01T14:01:30;1.50;;;1.35;;
30998;SDS011;20549;50.042;8.968;2023-08-01T14:03:57;1.32;;;1.20;;
30998;SDS011;20549;50.042;8.968;2023-08-01T14:06:23;1.87;;;1.50;;
30998;SDS011;20549;50.042;8.968;2023-08-01T14:08:50;2.80;;;1.30;;
30998;SDS011;20549;50.042;8.968;2023-08-01T14:11:16;1.35;;;1.17;;
30998;SDS011;20549;50.042;8.968;2023-08-01T14:13:43;1.60;;;1.30;;
30998;SDS011;20549;50.042;8.968;2023-08-01T14:16:10;2.05;;;1.20;;
30998;SDS011;20549;50.042;8.968;2023-08-01T14:18:36;1.40;;;1.30;;
30998;SDS011;20549;50.042;8.968;2023-08-01T14:21:03;1.30;;;1.20;;
30998;SDS011;20549;50.042;8.968;2023-08-01T14:23:29;1.32;;;1.10;;
30998;SDS011;20549;50.042;8.968;2023-08-01T14:25:57;2.10;;;1.45;;
30998;SDS011;20549;50.042;8.968;2023-08-01T14:28:23;1.37;;;1.27;;
30998;SDS011;20549;50.042;8.968;2023-08-01T14:30:49;1.20;;;1.10;;
30998;SDS011;20549;50.042;8.968;2023-08-01T14:33:16;1.42;;;1.17;;
30998;SDS011;20549;50.042;8.968;2023-08-01T14:35:42;1.17;;;1.07;;
30998;SDS011;20549;50.042;8.968;2023-08-01T14:38:09;1.30;;;1.20;;
30998;SDS011;20549;50.042;8.968;2023-08-01T14:40:35;1.90;;;1.22;;
30998;SDS011;20549;50.042;8.968;2023-08-01T14:43:02;2.15;;;1.40;;
30998;SDS011;20549;50.042;8.968;2023-08-01T14:45:29;1.40;;;1.30;;